createdAt,value
2022-10-16T00:01:51.542Z,16.41
2022-10-16T00:04:20.363Z,16.31
2022-10-16T00:06:49.241Z,16.27
2022-10-16T00:09:18.352Z,16.26
2022-10-16T00:11:46.757Z,16.23
2022-10-16T00:14:16.931Z,16.20
2022-10-16T00:16:46.566Z,16.17
2022-10-16T00:19:17.193Z,16.16
2022-10-16T00:21:46.010Z,16.10
2022-10-16T00:24:14.447Z,16.09
2022-10-16T00:26:43.892Z,16.10
2022-10-16T00:29:12.573Z,16.01
2022-10-16T00:31:40.967Z,15.99
2022-10-16T00:34:10.419Z,15.88
2022-10-16T00:36:40.340Z,15.96
2022-10-16T00:39:09.571Z,15.93
2022-10-16T00:41:38.281Z,15.92
2022-10-16T00:44:51.189Z,15.92
2022-10-16T00:47:24.726Z,15.89
2022-10-16T00:49:58.284Z,15.88
2022-10-16T00:52:28.276Z,15.89
2022-10-16T00:54:58.674Z,15.90
2022-10-16T00:57:27.576Z,15.88
2022-10-16T00:59:57.236Z,15.81
2022-10-16T01:02:26.233Z,15.77
2022-10-16T01:04:56.474Z,15.74
2022-10-16T01:07:42.002Z,15.73
2022-10-16T01:10:19.280Z,15.74
2022-10-16T01:12:52.823Z,15.73
2022-10-16T01:15:29.715Z,15.75
2022-10-16T01:18:06.086Z,15.67
2022-10-16T01:20:40.607Z,15.64
2022-10-16T01:23:24.011Z,15.59
2022-10-16T01:26:11.488Z,15.59
2022-10-16T01:28:47.222Z,15.58
2022-10-16T01:31:20.135Z,15.54
2022-10-16T01:33:55.858Z,15.51
2022-10-16T01:36:30.369Z,15.49
2022-10-16T01:39:03.342Z,15.50
2022-10-16T01:41:35.388Z,15.49
2022-10-16T01:44:10.699Z,15.43
2022-10-16T01:46:43.102Z,15.37
2022-10-16T01:49:14.797Z,15.29
2022-10-16T01:51:46.307Z,15.31
2022-10-16T01:54:17.067Z,15.33
2022-10-16T01:56:48.665Z,15.39
2022-10-16T01:59:22.380Z,15.37
2022-10-16T02:01:56.919Z,15.39
2022-10-16T02:04:30.141Z,15.41
2022-10-16T02:06:59.084Z,15.42
2022-10-16T02:09:28.202Z,15.46
2022-10-16T02:12:03.711Z,15.48
2022-10-16T02:14:34.147Z,15.43
2022-10-16T02:17:02.590Z,15.39
2022-10-16T02:19:31.542Z,15.39
2022-10-16T02:22:05.540Z,15.41
2022-10-16T02:24:38.930Z,15.40
2022-10-16T02:27:13.670Z,15.41
2022-10-16T02:29:49.519Z,15.38
2022-10-16T02:32:23.849Z,15.51
2022-10-16T02:34:54.030Z,15.56
2022-10-16T02:37:22.552Z,15.54
2022-10-16T02:39:52.140Z,15.52
2022-10-16T02:42:20.906Z,15.54
2022-10-16T02:44:51.685Z,15.56
2022-10-16T02:47:20.077Z,15.57
2022-10-16T02:49:49.146Z,15.61
2022-10-16T02:52:18.012Z,15.60
2022-10-16T02:54:46.941Z,15.60
2022-10-16T02:57:15.711Z,15.59
2022-10-16T02:59:44.079Z,15.57
2022-10-16T03:02:14.628Z,15.56
2022-10-16T03:04:43.127Z,15.52
2022-10-16T03:07:12.297Z,15.49
2022-10-16T03:09:41.113Z,15.46
2022-10-16T03:12:09.509Z,15.42
2022-10-16T03:14:38.659Z,15.39
2022-10-16T03:17:06.987Z,15.40
2022-10-16T03:19:37.758Z,15.35
2022-10-16T03:22:06.736Z,15.32
2022-10-16T03:24:35.099Z,15.28
2022-10-16T03:27:04.355Z,15.26
2022-10-16T03:29:33.750Z,15.28
2022-10-16T03:32:03.400Z,15.28
2022-10-16T03:34:32.196Z,15.18
2022-10-16T03:37:02.609Z,15.21
2022-10-16T03:39:31.514Z,15.19
2022-10-16T03:41:59.878Z,15.15
2022-10-16T03:44:28.777Z,15.08
2022-10-16T03:46:57.168Z,15.00
2022-10-16T03:49:26.153Z,14.94
2022-10-16T03:51:54.613Z,14.92
2022-10-16T03:54:25.208Z,14.89
2022-10-16T03:56:53.635Z,14.87
2022-10-16T03:59:22.576Z,14.87
2022-10-16T04:01:51.343Z,14.87
2022-10-16T04:04:19.798Z,14.86
2022-10-16T04:06:49.071Z,14.86
2022-10-16T04:09:17.877Z,14.89
2022-10-16T04:11:48.077Z,14.92
2022-10-16T04:14:16.505Z,14.97
2022-10-16T04:16:45.359Z,14.93
2022-10-16T04:19:14.267Z,14.91
2022-10-16T04:21:43.270Z,14.90
2022-10-16T04:24:12.930Z,14.89
2022-10-16T04:26:41.472Z,14.87
2022-10-16T04:29:11.596Z,14.85
2022-10-16T04:31:40.002Z,14.85
2022-10-16T04:34:08.623Z,14.86
2022-10-16T04:36:37.053Z,14.86
2022-10-16T04:39:05.972Z,14.84
2022-10-16T04:41:34.686Z,14.89
2022-10-16T04:44:03.140Z,14.90
2022-10-16T04:46:33.271Z,14.89
2022-10-16T04:49:01.921Z,14.84
2022-10-16T04:51:30.679Z,14.86
2022-10-16T04:53:59.621Z,14.86
2022-10-16T04:56:28.052Z,14.86
2022-10-16T04:58:57.235Z,14.87
2022-10-16T05:01:25.723Z,14.87
2022-10-16T05:03:55.432Z,14.86
2022-10-16T05:06:24.034Z,14.86
2022-10-16T05:08:52.389Z,14.88
2022-10-16T05:11:21.140Z,14.87
2022-10-16T05:13:50.998Z,14.78
2022-10-16T05:16:22.779Z,14.76
2022-10-16T05:18:53.174Z,14.77
2022-10-16T05:21:26.652Z,14.75
2022-10-16T05:23:55.964Z,14.74
2022-10-16T05:26:25.214Z,14.73
2022-10-16T05:28:53.589Z,14.72
2022-10-16T05:31:22.822Z,14.75
2022-10-16T05:33:51.587Z,14.75
2022-10-16T05:36:20.181Z,14.78
2022-10-16T05:38:53.043Z,14.75
2022-10-16T05:41:22.702Z,14.74
2022-10-16T05:43:51.824Z,14.73
2022-10-16T05:46:20.457Z,14.76
2022-10-16T05:48:48.848Z,14.74
2022-10-16T05:51:17.500Z,14.68
2022-10-16T05:53:45.904Z,14.68
2022-10-16T05:56:16.181Z,14.69
2022-10-16T05:58:45.692Z,14.70
2022-10-16T06:01:17.133Z,14.70
2022-10-16T06:03:46.109Z,14.68
2022-10-16T06:06:16.516Z,14.69
2022-10-16T06:08:46.994Z,14.66
2022-10-16T06:11:18.471Z,14.74
2022-10-16T06:13:48.901Z,14.74
2022-10-16T06:16:17.534Z,14.76
2022-10-16T06:18:46.789Z,14.69
2022-10-16T06:21:19.588Z,14.75
2022-10-16T06:23:48.926Z,14.75
2022-10-16T06:26:22.371Z,14.70
2022-10-16T06:28:51.732Z,14.75
2022-10-16T06:31:20.612Z,14.77
2022-10-16T06:33:52.827Z,14.83
2022-10-16T06:36:22.714Z,14.83
2022-10-16T06:38:52.050Z,14.88
2022-10-16T06:41:24.149Z,14.91
2022-10-16T06:43:53.868Z,14.88
2022-10-16T06:46:24.872Z,14.86
2022-10-16T06:48:53.338Z,14.84
2022-10-16T06:51:23.425Z,14.84
2022-10-16T06:54:08.661Z,14.78
2022-10-16T06:56:39.550Z,14.84
2022-10-16T06:59:07.982Z,14.87
2022-10-16T07:01:36.815Z,14.92
2022-10-16T07:04:05.574Z,14.97
2022-10-16T07:06:35.883Z,15.02
2022-10-16T07:09:08.131Z,15.06
2022-10-16T07:11:39.722Z,15.07
2022-10-16T07:14:16.901Z,15.10
2022-10-16T07:16:47.740Z,15.13
2022-10-16T07:19:18.968Z,15.17
2022-10-16T07:21:47.404Z,15.29
2022-10-16T07:24:17.861Z,15.48
2022-10-16T07:26:48.136Z,15.63
2022-10-16T07:29:18.807Z,15.82
2022-10-16T07:31:47.950Z,15.98
2022-10-16T07:34:19.662Z,16.20
2022-10-16T07:36:50.003Z,16.22
2022-10-16T07:39:19.704Z,16.21
2022-10-16T07:41:49.515Z,16.27
2022-10-16T07:44:18.306Z,16.28
2022-10-16T07:46:46.932Z,16.48
2022-10-16T07:49:15.479Z,16.60
2022-10-16T07:51:44.525Z,16.69
2022-10-16T07:54:13.084Z,16.74
2022-10-16T07:56:43.858Z,16.80
2022-10-16T07:59:14.102Z,16.91
2022-10-16T08:01:44.614Z,16.93
2022-10-16T08:04:13.185Z,17.03
2022-10-16T08:06:42.943Z,17.15
2022-10-16T08:09:12.400Z,17.32
2022-10-16T08:11:40.778Z,17.38
2022-10-16T08:14:10.160Z,17.42
2022-10-16T08:16:40.173Z,17.42
2022-10-16T08:19:09.328Z,17.36
2022-10-16T08:21:37.761Z,17.50
2022-10-16T08:24:07.219Z,17.80
2022-10-16T08:26:35.632Z,18.08
2022-10-16T08:29:05.112Z,18.27
2022-10-16T08:31:33.924Z,18.46
2022-10-16T08:34:03.778Z,18.54
2022-10-16T08:36:33.621Z,18.77
2022-10-16T08:39:01.967Z,19.01
2022-10-16T08:42:00.424Z,19.22
2022-10-16T08:45:02.125Z,19.45
2022-10-16T08:47:46.307Z,19.68
2022-10-16T08:50:23.850Z,19.91
2022-10-16T08:52:53.774Z,19.86
2022-10-16T08:55:35.765Z,20.18
2022-10-16T08:58:14.214Z,20.39
2022-10-16T09:00:44.315Z,20.58
2022-10-16T09:03:24.509Z,20.68
2022-10-16T09:06:19.582Z,20.69
2022-10-16T09:08:59.100Z,20.82
2022-10-16T09:11:42.356Z,20.68
2022-10-16T09:14:26.618Z,20.79
2022-10-16T09:17:02.348Z,20.99
2022-10-16T09:19:35.847Z,21.20
2022-10-16T09:22:16.327Z,21.37
2022-10-16T09:24:47.396Z,21.50
2022-10-16T09:27:17.268Z,21.55
2022-10-16T09:29:46.177Z,21.72
2022-10-16T09:32:18.308Z,21.80
2022-10-16T09:34:51.752Z,21.96
2022-10-16T09:37:25.710Z,22.11
2022-10-16T09:39:56.142Z,22.34
2022-10-16T09:42:29.968Z,22.50
2022-10-16T09:45:01.164Z,22.66
2022-10-16T09:47:31.884Z,22.77
2022-10-16T09:50:05.194Z,22.92
2022-10-16T09:52:35.976Z,23.09
2022-10-16T09:55:15.855Z,23.15
2022-10-16T09:57:51.666Z,23.29
2022-10-16T10:00:21.310Z,23.28
2022-10-16T10:02:50.676Z,23.40
2022-10-16T10:05:24.624Z,23.45
2022-10-16T10:08:00.430Z,23.48
2022-10-16T10:10:30.255Z,23.69
2022-10-16T10:13:00.009Z,23.86
2022-10-16T10:15:34.952Z,24.07
2022-10-16T10:18:04.707Z,24.21
2022-10-16T10:20:35.539Z,24.35
2022-10-16T10:23:23.460Z,24.65
2022-10-16T10:25:57.034Z,24.84
2022-10-16T10:28:51.236Z,24.80
2022-10-16T10:31:26.242Z,24.87
2022-10-16T10:34:03.325Z,25.15
2022-10-16T10:36:36.355Z,25.34
2022-10-16T10:39:14.739Z,25.49
2022-10-16T10:42:21.332Z,25.70
2022-10-16T10:45:10.017Z,25.91
2022-10-16T10:47:49.391Z,26.12
2022-10-16T10:50:25.746Z,26.23
2022-10-16T10:53:02.017Z,26.31
2022-10-16T10:55:41.886Z,26.41
2022-10-16T10:58:38.859Z,26.57
2022-10-16T11:01:11.668Z,26.67
2022-10-16T11:03:59.451Z,26.70
2022-10-16T11:06:33.612Z,26.68
2022-10-16T11:09:11.136Z,26.75
2022-10-16T11:11:46.573Z,26.65
2022-10-16T11:14:21.380Z,26.96
2022-10-16T11:16:55.232Z,27.17
2022-10-16T11:19:34.143Z,27.13
2022-10-16T11:22:10.016Z,27.19
2022-10-16T11:24:45.444Z,27.51
2022-10-16T11:27:20.086Z,27.77
2022-10-16T11:29:54.991Z,28.03
2022-10-16T11:32:29.114Z,28.18
2022-10-16T11:35:01.989Z,28.36
2022-10-16T11:37:36.459Z,28.53
2022-10-16T11:40:18.615Z,28.67
2022-10-16T11:42:54.426Z,28.82
2022-10-16T11:45:32.050Z,28.95
2022-10-16T11:48:06.858Z,28.99
2022-10-16T11:50:42.436Z,29.04
2022-10-16T11:53:20.881Z,29.17
2022-10-16T11:55:49.939Z,29.24
2022-10-16T11:58:27.473Z,29.30
2022-10-16T12:01:07.728Z,29.26
2022-10-16T12:03:43.460Z,29.34
2022-10-16T12:06:25.386Z,29.54
2022-10-16T12:08:56.229Z,29.54
2022-10-16T12:11:32.990Z,29.55
2022-10-16T12:15:03.993Z,29.91
2022-10-16T12:17:39.352Z,30.01
2022-10-16T12:20:27.670Z,30.19
2022-10-16T12:22:58.953Z,30.45
2022-10-16T12:28:24.548Z,29.80
2022-10-16T12:30:58.802Z,29.46
2022-10-16T12:33:31.335Z,29.03
2022-10-16T12:36:02.654Z,28.70
2022-10-16T12:38:38.875Z,28.54
2022-10-16T12:41:11.099Z,28.62
2022-10-16T12:43:43.300Z,28.66
2022-10-16T12:46:26.694Z,28.64
2022-10-16T12:49:09.934Z,28.82
2022-10-16T12:51:39.260Z,28.80
2022-10-16T12:54:17.270Z,28.69
2022-10-16T12:56:58.889Z,28.36
2022-10-16T12:59:37.667Z,28.16
2022-10-16T13:02:23.768Z,27.96
2022-10-16T13:05:08.530Z,27.78
2022-10-16T13:07:54.147Z,27.68
2022-10-16T13:10:29.188Z,27.84
2022-10-16T13:13:18.688Z,27.90
2022-10-16T13:16:00.117Z,27.91
2022-10-16T13:18:39.284Z,27.88
2022-10-16T13:21:20.631Z,27.86
2022-10-16T13:23:57.935Z,27.83
2022-10-16T13:26:38.562Z,27.64
2022-10-16T13:29:07.048Z,27.33
2022-10-16T13:31:36.569Z,27.11
2022-10-16T13:34:05.339Z,27.12
2022-10-16T13:36:46.498Z,27.27
2022-10-16T13:39:18.364Z,27.16
2022-10-16T13:41:47.501Z,27.21
2022-10-16T13:44:20.903Z,27.55
2022-10-16T13:46:59.806Z,28.15
2022-10-16T13:49:29.570Z,28.67
2022-10-16T13:52:01.005Z,29.02
2022-10-16T13:54:31.146Z,29.33
2022-10-16T13:57:15.653Z,29.57
2022-10-16T13:59:57.247Z,29.70
2022-10-16T14:02:29.798Z,29.78
2022-10-16T14:05:01.054Z,29.56
2022-10-16T14:07:34.032Z,29.44
2022-10-16T14:10:05.380Z,29.45
2022-10-16T14:12:35.518Z,29.53
2022-10-16T14:15:05.012Z,29.36
2022-10-16T14:17:36.087Z,29.37
2022-10-16T14:20:07.987Z,29.42
2022-10-16T14:22:40.998Z,29.53
2022-10-16T14:25:27.758Z,29.39
2022-10-16T14:30:37.572Z,29.54
2022-10-16T14:33:08.818Z,29.48
2022-10-16T14:35:39.500Z,29.10
2022-10-16T14:38:22.417Z,29.03
2022-10-16T14:40:52.288Z,29.02
2022-10-16T14:43:24.395Z,28.89
2022-10-16T14:45:55.234Z,28.98
2022-10-16T14:48:24.481Z,29.08
2022-10-16T14:50:52.907Z,29.04
2022-10-16T14:53:22.903Z,28.81
2022-10-16T14:55:52.354Z,28.56
2022-10-16T14:58:24.307Z,28.45
2022-10-16T15:00:52.779Z,28.23
2022-10-16T15:03:21.176Z,28.26
2022-10-16T15:05:50.380Z,28.22
2022-10-16T15:08:19.142Z,28.15
2022-10-16T15:10:48.850Z,28.13
2022-10-16T15:13:17.979Z,28.10
2022-10-16T15:15:47.748Z,27.90
2022-10-16T15:18:21.113Z,27.71
2022-10-16T15:20:51.901Z,27.58
2022-10-16T15:23:22.135Z,27.42
2022-10-16T15:25:53.947Z,27.32
2022-10-16T15:28:24.512Z,27.12
2022-10-16T15:30:54.452Z,26.88
2022-10-16T15:33:25.310Z,26.74
2022-10-16T15:35:54.416Z,26.58
2022-10-16T15:38:24.421Z,26.49
2022-10-16T15:40:54.592Z,26.30
2022-10-16T15:43:23.074Z,26.10
2022-10-16T15:46:02.190Z,25.93
2022-10-16T15:48:31.607Z,25.79
2022-10-16T15:51:02.396Z,25.64
2022-10-16T15:53:30.843Z,25.52
2022-10-16T15:56:04.034Z,25.32
2022-10-16T15:58:32.508Z,25.13
2022-10-16T16:01:02.721Z,24.99
2022-10-16T16:03:33.182Z,24.97
2022-10-16T16:06:06.352Z,24.90
2022-10-16T16:08:36.394Z,24.78
2022-10-16T16:11:08.767Z,24.61
2022-10-16T16:13:39.199Z,24.44
2022-10-16T16:16:09.866Z,24.21
2022-10-16T16:18:38.889Z,24.00
2022-10-16T16:21:08.868Z,23.80
2022-10-16T16:23:37.302Z,23.75
2022-10-16T16:26:10.056Z,23.68
2022-10-16T16:28:39.440Z,23.64
2022-10-16T16:31:08.157Z,23.55
2022-10-16T16:33:37.447Z,23.38
2022-10-16T16:36:12.971Z,23.29
2022-10-16T16:38:44.667Z,22.99
2022-10-16T16:41:16.314Z,22.76
2022-10-16T16:43:44.855Z,22.65
2022-10-16T16:46:13.741Z,22.59
2022-10-16T16:48:42.945Z,22.56
2022-10-16T16:51:16.722Z,22.43
2022-10-16T16:53:46.791Z,22.40
2022-10-16T16:56:17.286Z,22.25
2022-10-16T16:58:48.114Z,22.15
2022-10-16T17:01:21.260Z,22.11
2022-10-16T17:03:53.155Z,22.04
2022-10-16T17:06:23.521Z,21.97
2022-10-16T17:08:52.773Z,21.94
2022-10-16T17:11:25.002Z,21.91
2022-10-16T17:13:57.289Z,21.86
2022-10-16T17:16:28.442Z,21.82
2022-10-16T17:18:58.790Z,21.80
2022-10-16T17:21:28.442Z,21.73
2022-10-16T17:23:57.272Z,21.75
2022-10-16T17:26:28.776Z,21.76
2022-10-16T17:28:59.004Z,21.81
2022-10-16T17:31:30.077Z,21.75
2022-10-16T17:34:00.000Z,21.71
2022-10-16T17:36:31.206Z,21.58
2022-10-16T17:39:01.727Z,21.58
2022-10-16T17:41:31.939Z,21.56
2022-10-16T17:44:01.461Z,21.51
2022-10-16T17:46:29.934Z,21.43
2022-10-16T17:48:58.990Z,21.44
2022-10-16T17:51:31.055Z,21.45
2022-10-16T17:54:02.686Z,21.45
2022-10-16T17:56:32.692Z,21.43
2022-10-16T17:59:04.137Z,21.35
2022-10-16T18:01:36.636Z,21.33
2022-10-16T18:04:07.496Z,21.31
2022-10-16T18:06:37.808Z,21.30
2022-10-16T18:09:08.015Z,21.31
2022-10-16T18:11:39.595Z,21.32
2022-10-16T18:14:08.108Z,21.25
2022-10-16T18:16:39.439Z,21.26
2022-10-16T18:19:08.651Z,21.22
2022-10-16T18:21:37.067Z,21.19
2022-10-16T18:24:06.638Z,21.20
2022-10-16T18:26:35.478Z,21.17
2022-10-16T18:29:05.734Z,21.16
2022-10-16T18:31:37.805Z,21.10
2022-10-16T18:34:10.054Z,21.02
2022-10-16T18:36:39.652Z,21.04
2022-10-16T18:39:10.794Z,21.05
2022-10-16T18:41:40.164Z,21.04
2022-10-16T18:44:11.849Z,21.00
2022-10-16T18:46:42.182Z,20.96
2022-10-16T18:49:10.862Z,20.86
2022-10-16T18:51:41.307Z,20.85
2022-10-16T18:54:11.290Z,20.81
2022-10-16T18:56:40.119Z,20.72
2022-10-16T18:59:12.276Z,20.60
2022-10-16T19:01:41.329Z,20.55
2022-10-16T19:04:12.059Z,20.54
2022-10-16T19:06:42.884Z,20.50
2022-10-16T19:09:12.052Z,20.49
2022-10-16T19:11:41.985Z,20.46
2022-10-16T19:14:13.280Z,20.42
2022-10-16T19:16:42.937Z,20.33
2022-10-16T19:19:14.862Z,20.33
2022-10-16T19:21:43.668Z,20.31
2022-10-16T19:24:17.863Z,20.26
2022-10-16T19:26:46.511Z,20.21
2022-10-16T19:29:16.218Z,20.18
2022-10-16T19:31:45.613Z,20.14
2022-10-16T19:34:14.407Z,20.11
2022-10-16T19:36:42.805Z,20.06
2022-10-16T19:39:14.903Z,19.99
2022-10-16T19:41:44.255Z,19.89
2022-10-16T19:44:15.462Z,19.76
2022-10-16T19:46:46.809Z,19.70
2022-10-16T19:49:18.291Z,19.72
2022-10-16T19:51:50.494Z,19.66
2022-10-16T19:54:19.584Z,19.66
2022-10-16T19:56:47.968Z,19.59
2022-10-16T19:59:19.288Z,19.54
2022-10-16T20:01:49.625Z,19.50
2022-10-16T20:04:19.078Z,19.44
2022-10-16T20:06:47.438Z,19.41
2022-10-16T20:09:16.550Z,19.39
2022-10-16T20:11:44.923Z,19.38
2022-10-16T20:14:13.658Z,19.36
2022-10-16T20:16:42.030Z,19.30
2022-10-16T20:19:12.346Z,19.27
2022-10-16T20:21:40.948Z,19.25
2022-10-16T20:24:09.709Z,19.25
2022-10-16T20:26:38.745Z,19.20
2022-10-16T20:29:08.014Z,19.14
2022-10-16T20:31:37.515Z,19.05
2022-10-16T20:34:08.328Z,19.02
2022-10-16T20:36:40.226Z,18.98
2022-10-16T20:39:09.315Z,18.92
2022-10-16T20:41:37.750Z,18.84
2022-10-16T20:44:06.822Z,18.78
2022-10-16T20:46:35.468Z,18.72
2022-10-16T20:49:11.505Z,18.68
2022-10-16T20:51:52.332Z,18.71
2022-10-16T20:54:21.309Z,18.69
2022-10-16T20:56:49.714Z,18.69
2022-10-16T20:59:18.546Z,18.66
2022-10-16T21:01:46.968Z,18.69
2022-10-16T21:04:15.462Z,18.72
2022-10-16T21:06:45.284Z,18.69
2022-10-16T21:09:15.001Z,18.66
2022-10-16T21:11:44.421Z,18.63
2022-10-16T21:14:12.776Z,18.62
2022-10-16T21:16:41.945Z,18.60
2022-10-16T21:19:10.367Z,18.58
2022-10-16T21:21:39.671Z,18.56
2022-10-16T21:24:12.214Z,18.45
2022-10-16T21:26:45.327Z,18.42
2022-10-16T21:29:14.744Z,18.43
2022-10-16T21:31:43.525Z,18.41
2022-10-16T21:34:12.476Z,18.39
2022-10-16T21:36:43.259Z,18.33
2022-10-16T21:39:14.441Z,18.34
2022-10-16T21:41:47.514Z,18.32
2022-10-16T21:44:17.470Z,18.33
2022-10-16T21:46:47.086Z,18.27
2022-10-16T21:49:18.401Z,18.28
2022-10-16T21:51:49.179Z,18.26
2022-10-16T21:54:20.256Z,18.23
2022-10-16T21:56:50.178Z,18.23
2022-10-16T21:59:21.153Z,18.16
2022-10-16T22:01:50.008Z,18.04
2022-10-16T22:04:19.182Z,18.01
2022-10-16T22:06:47.596Z,17.98
2022-10-16T22:09:17.048Z,17.96
2022-10-16T22:11:46.024Z,17.98
2022-10-16T22:14:18.792Z,17.93
2022-10-16T22:16:48.899Z,17.89
2022-10-16T22:19:19.922Z,17.81
2022-10-16T22:21:51.702Z,17.75
2022-10-16T22:24:21.077Z,17.63
2022-10-16T22:26:49.520Z,17.57
2022-10-16T22:29:20.258Z,17.55
2022-10-16T22:31:52.224Z,17.52
2022-10-16T22:34:21.734Z,17.51
2022-10-16T22:36:51.304Z,17.45
2022-10-16T22:39:19.741Z,17.41
2022-10-16T22:41:49.029Z,17.40
2022-10-16T22:44:18.759Z,17.42
2022-10-16T22:46:47.817Z,17.40
2022-10-16T22:49:17.437Z,17.35
2022-10-16T22:51:46.308Z,17.33
2022-10-16T22:54:15.772Z,17.34
2022-10-16T22:56:44.179Z,17.31
2022-10-16T22:59:12.811Z,17.26
2022-10-16T23:01:43.611Z,17.25
2022-10-16T23:04:12.405Z,17.24
2022-10-16T23:06:40.746Z,17.27
2022-10-16T23:09:11.805Z,17.30
2022-10-16T23:11:40.302Z,17.30
2022-10-16T23:14:09.572Z,17.26
2022-10-16T23:16:37.994Z,17.20
2022-10-16T23:21:38.332Z,17.17
2022-10-16T23:24:07.910Z,17.12
2022-10-16T23:26:37.776Z,17.09
2022-10-16T23:29:06.224Z,17.09
2022-10-16T23:31:35.027Z,17.08
2022-10-16T23:34:03.591Z,17.04
2022-10-16T23:36:33.987Z,16.99
2022-10-16T23:39:02.419Z,16.99
2022-10-16T23:41:31.610Z,16.95
2022-10-16T23:44:00.579Z,16.83
2022-10-16T23:46:29.010Z,16.83
2022-10-16T23:48:58.136Z,16.86
2022-10-16T23:51:27.038Z,16.81
2022-10-16T23:53:56.810Z,16.85
2022-10-16T23:56:26.033Z,16.77
2022-10-16T23:58:54.758Z,16.69
